Chronik & Geschichte

Boeing Stearman am Flugplatz Konstanz

Mit seiner 107-jährigen Geschichte ist Konstanz der älteste Verkehrslandeplatz Deutschlands. Lesen Sie unsere Festschrift zum 100-jährigen Platzjubiläum oder entdecken Sie die ausführliche Flugplatzchronik auf der Website der Initiative PRO Flugplatz Konstanz.

Live am Platz

Die Bilder unserer Webcams werden alle 5 Minuten aktualisiert.

Sonnenaufgang:

04:59 UTC / 06:59 Lokal

Sonnenuntergang:

17:55 UTC / 19:55 Lokal

METAR (01.04.2020 03:20 UTC):

EDNY 010420Z AUTO 04003KT 9999 // NCD M02/M06 Q1020
VFR

TAF (31.03.2020 22:00 UTC):

TAF EDNY 312300Z 0100/0124 03005KT CAVOK BECMG 0110/0112 22005KT BECMG 0115/0117 30004KT

Alle Angaben unverbindlich und ohne Gewähr. Zeiten genähert.

Für den Verkehrslandeplatz Konstanz werden keine offiziellen Wetterinformationen ausgegeben. Daher werden zur Orientierung Daten des nahegelegenen Flughafens Friedrichshafen dargestellt.

Flugwetterdaten zur Verfügung gestellt von wippich.aero.